Time;durP1;ratioP1;P1;durP2;ratioP2;P2;SDS_P1;SDS_P2;PMS_P1;PMS_P2;Temp;Humidity;BMP_temperature;BMP_pressure;BME280_temperature;BME280_humidity;BME280_pressure;Samples;Min_cycle;Max_cycle;Signal;HPM_P1;HPM_P2
2023/05/28 00:01:10;;;;;;;7.67;4.83;;;13.00;97.00;;;;;;5059921;28;20659;-71
2023/05/28 00:03:56;;;;;;;17.33;4.50;;;12.80;97.60;;;;;;5064220;28;20448;-71
2023/05/28 00:06:43;;;;;;;10.90;4.67;;;12.60;98.80;;;;;;5069050;28;20441;-71
2023/05/28 00:09:28;;;;;;;9.37;4.63;;;12.70;99.90;;;;;;5063876;28;20465;-71
2023/05/28 00:12:14;;;;;;;5.80;3.80;;;12.60;99.90;;;;;;5067937;28;20768;-71
2023/05/28 00:15:00;;;;;;;15.53;4.13;;;12.70;99.90;;;;;;5074050;28;20444;-71
2023/05/28 00:17:45;;;;;;;12.30;5.20;;;12.50;99.90;;;;;;5068107;28;20427;-71
2023/05/28 00:20:30;;;;;;;7.90;4.13;;;12.60;99.90;;;;;;5062021;28;20414;-71
2023/05/28 00:23:17;;;;;;;9.50;4.60;;;12.70;99.90;;;;;;5069221;28;20444;-71
2023/05/28 00:26:03;;;;;;;11.27;5.33;;;12.80;99.90;;;;;;5063880;28;20546;-70
2023/05/28 00:28:49;;;;;;;6.83;3.90;;;12.70;99.90;;;;;;5062210;28;20463;-71
2023/05/28 00:31:34;;;;;;;10.77;4.50;;;12.60;99.90;;;;;;5065005;28;20444;-71
2023/05/28 00:34:20;;;;;;;12.03;4.13;;;12.50;99.90;;;;;;5068443;28;21040;-71
2023/05/28 00:37:06;;;;;;;13.57;4.37;;;12.40;99.90;;;;;;5065555;28;20457;-71
2023/05/28 00:39:53;;;;;;;5.80;4.07;;;12.40;99.90;;;;;;5061213;28;20454;-71
2023/05/28 00:42:39;;;;;;;7.93;4.10;;;12.60;99.90;;;;;;5063589;28;20517;-70
2023/05/28 00:45:24;;;;;;;11.13;3.93;;;12.70;99.90;;;;;;5065024;28;20431;-71
2023/05/28 00:48:10;;;;;;;6.30;3.77;;;12.70;99.90;;;;;;5063501;28;20982;-71
2023/05/28 00:50:56;;;;;;;7.20;4.33;;;12.80;99.90;;;;;;5061825;28;20407;-71
2023/05/28 00:53:42;;;;;;;10.60;4.80;;;12.70;99.90;;;;;;5065630;28;20449;-70
2023/05/28 00:56:31;;;;;;;6.57;3.80;;;12.70;99.90;;;;;;5065846;28;20531;-71
2023/05/28 00:59:17;;;;;;;9.63;5.03;;;12.70;99.90;;;;;;5062914;28;20469;-71
2023/05/28 01:02:02;;;;;;;8.93;4.07;;;12.80;99.90;;;;;;5067518;28;20579;-71
2023/05/28 01:04:47;;;;;;;10.73;4.20;;;12.50;99.90;;;;;;5063968;28;20552;-71
2023/05/28 01:07:33;;;;;;;10.83;4.67;;;12.40;99.90;;;;;;5066213;28;20515;-70
2023/05/28 01:10:19;;;;;;;7.73;4.40;;;12.20;99.90;;;;;;5065096;28;20436;-71
2023/05/28 01:13:08;;;;;;;8.63;4.83;;;12.20;99.90;;;;;;5063301;28;20970;-71
2023/05/28 01:15:54;;;;;;;6.90;4.10;;;12.10;99.90;;;;;;5061275;28;20424;-71
2023/05/28 01:18:41;;;;;;;8.93;4.07;;;12.10;99.90;;;;;;5062267;28;20635;-71
2023/05/28 01:21:28;;;;;;;9.23;5.30;;;12.10;99.90;;;;;;5064984;28;20513;-71
2023/05/28 01:24:15;;;;;;;12.23;4.43;;;12.10;99.90;;;;;;5063651;28;20969;-71
2023/05/28 01:27:01;;;;;;;8.40;4.50;;;12.10;99.90;;;;;;5066050;28;20418;-71
2023/05/28 01:29:47;;;;;;;10.67;4.17;;;12.20;99.90;;;;;;5065651;28;20443;-71
2023/05/28 01:32:32;;;;;;;8.07;4.50;;;12.10;99.90;;;;;;5066279;28;20924;-71
2023/05/28 01:35:18;;;;;;;10.07;4.30;;;12.10;99.90;;;;;;5066074;28;20447;-71
2023/05/28 01:38:04;;;;;;;5.90;3.97;;;12.00;99.90;;;;;;5064586;28;20444;-71
2023/05/28 01:40:54;;;;;;;8.23;4.50;;;12.00;99.90;;;;;;5065516;28;20429;-71
2023/05/28 01:43:41;;;;;;;7.63;3.87;;;12.20;99.90;;;;;;5065352;28;20457;-71
2023/05/28 01:46:27;;;;;;;12.83;4.50;;;12.10;99.90;;;;;;5068079;28;21002;-71
2023/05/28 01:49:13;;;;;;;11.53;3.83;;;12.20;99.90;;;;;;5059453;28;20452;-71
2023/05/28 01:51:58;;;;;;;7.73;3.90;;;12.10;99.90;;;;;;5067063;28;20841;-71
2023/05/28 01:54:44;;;;;;;11.93;4.27;;;12.20;99.90;;;;;;5067287;28;20770;-71
2023/05/28 01:57:31;;;;;;;7.93;4.30;;;12.10;99.90;;;;;;5070419;28;20662;-71
2023/05/28 02:00:17;;;;;;;7.43;4.27;;;12.10;99.90;;;;;;5073656;28;20856;-71
2023/05/28 02:03:04;;;;;;;7.47;4.30;;;12.10;99.90;;;;;;5073549;28;20450;-71
2023/05/28 02:05:49;;;;;;;11.20;5.17;;;12.10;99.90;;;;;;5070747;28;20414;-71
2023/05/28 02:08:34;;;;;;;8.13;4.67;;;12.10;99.90;;;;;;5065906;28;20557;-71
2023/05/28 02:11:21;;;;;;;9.93;5.70;;;11.90;99.90;;;;;;5072613;28;21031;-70
2023/05/28 02:14:09;;;;;;;10.07;4.40;;;11.90;99.90;;;;;;5069359;28;20565;-71
2023/05/28 02:16:54;;;;;;;7.03;4.10;;;11.90;99.90;;;;;;5068502;28;20412;-71
2023/05/28 02:19:40;;;;;;;16.80;4.33;;;11.80;99.90;;;;;;5068750;28;20575;-71
2023/05/28 02:22:25;;;;;;;9.37;4.87;;;11.70;99.90;;;;;;5069971;28;20476;-71
2023/05/28 02:25:10;;;;;;;6.97;4.23;;;11.60;99.90;;;;;;5069660;28;20452;-71
2023/05/28 02:27:56;;;;;;;10.13;5.10;;;11.60;99.90;;;;;;5066346;28;20458;-70
2023/05/28 02:30:43;;;;;;;10.53;4.93;;;11.60;99.90;;;;;;5065617;28;20427;-71
2023/05/28 02:33:28;;;;;;;8.30;4.33;;;11.60;99.90;;;;;;5069426;28;20785;-70
2023/05/28 02:36:14;;;;;;;13.20;4.60;;;11.70;99.90;;;;;;5070636;28;20419;-71
2023/05/28 02:39:00;;;;;;;6.50;4.43;;;11.50;99.90;;;;;;5068136;28;20473;-71
2023/05/28 02:41:45;;;;;;;11.80;5.20;;;11.40;99.90;;;;;;5077949;28;20471;-71
2023/05/28 02:44:30;;;;;;;7.43;4.57;;;11.40;99.90;;;;;;5068042;28;21016;-71
2023/05/28 02:47:18;;;;;;;8.57;4.50;;;11.40;99.90;;;;;;5063405;28;21011;-71
2023/05/28 02:50:03;;;;;;;10.07;5.30;;;11.30;99.90;;;;;;5069512;28;20483;-71
2023/05/28 02:52:49;;;;;;;11.30;4.50;;;11.50;99.90;;;;;;5073635;28;20428;-71
2023/05/28 02:55:35;;;;;;;5.47;3.80;;;11.40;99.90;;;;;;5066875;28;20450;-71
2023/05/28 02:58:20;;;;;;;8.83;4.53;;;11.40;99.90;;;;;;5066367;28;20468;-71
2023/05/28 03:01:06;;;;;;;7.00;4.40;;;11.40;99.90;;;;;;5074943;28;20499;-71
2023/05/28 03:03:52;;;;;;;10.10;4.60;;;11.40;99.90;;;;;;5064959;28;20593;-71
2023/05/28 03:06:38;;;;;;;8.00;4.63;;;11.50;99.90;;;;;;5066236;28;20454;-71
2023/05/28 03:09:23;;;;;;;6.40;4.13;;;11.30;99.90;;;;;;5066725;28;20502;-70
2023/05/28 03:12:09;;;;;;;13.70;4.63;;;11.30;99.90;;;;;;5065654;28;20786;-71
2023/05/28 03:14:54;;;;;;;11.53;4.47;;;11.40;99.90;;;;;;5075144;28;20418;-71
2023/05/28 03:17:40;;;;;;;9.47;4.63;;;11.10;99.90;;;;;;5062142;28;20777;-71
2023/05/28 03:20:27;;;;;;;7.53;5.07;;;11.20;99.90;;;;;;5070894;22;20467;-72
2023/05/28 03:23:12;;;;;;;8.30;4.70;;;11.00;99.90;;;;;;5046127;28;20540;-73
2023/05/28 03:25:58;;;;;;;10.40;4.70;;;11.00;99.90;;;;;;5041617;28;20443;-73
2023/05/28 03:28:43;;;;;;;9.20;4.07;;;11.20;99.90;;;;;;5040745;28;20958;-73
2023/05/28 03:31:30;;;;;;;7.57;4.80;;;11.10;99.90;;;;;;5047681;28;20596;-73
2023/05/28 03:34:15;;;;;;;6.30;4.60;;;11.00;99.90;;;;;;5054600;28;20449;-73
2023/05/28 03:37:03;;;;;;;10.83;6.40;;;11.10;99.90;;;;;;5046096;28;20445;-73
2023/05/28 03:39:48;;;;;;;18.73;4.27;;;11.10;99.90;;;;;;5042442;28;20836;-73
2023/05/28 03:42:33;;;;;;;8.57;4.27;;;11.10;99.90;;;;;;5051695;28;20451;-73
2023/05/28 03:45:19;;;;;;;6.57;4.20;;;11.00;99.90;;;;;;5047345;28;20503;-72
2023/05/28 03:48:06;;;;;;;5.67;3.70;;;11.10;99.90;;;;;;5051869;28;20415;-73
2023/05/28 03:50:51;;;;;;;8.03;4.03;;;11.30;99.90;;;;;;5045367;28;20466;-73
2023/05/28 03:53:38;;;;;;;7.60;5.07;;;11.30;99.90;;;;;;5050146;28;20539;-72
2023/05/28 03:56:24;;;;;;;8.00;4.20;;;11.30;99.90;;;;;;5050635;28;20415;-73
2023/05/28 03:59:09;;;;;;;7.80;4.60;;;11.10;99.90;;;;;;5054457;28;20837;-70
2023/05/28 04:01:54;;;;;;;7.43;3.70;;;11.10;99.90;;;;;;5045076;28;20520;-73
2023/05/28 04:04:40;;;;;;;8.40;4.77;;;11.10;99.90;;;;;;5051128;28;20449;-70
2023/05/28 04:07:25;;;;;;;9.57;5.03;;;11.20;99.90;;;;;;5046069;28;20433;-73
2023/05/28 04:10:12;;;;;;;5.70;3.67;;;11.20;99.90;;;;;;5053636;28;20778;-72
2023/05/28 04:12:58;;;;;;;7.90;3.57;;;11.40;99.90;;;;;;5050798;28;20959;-74
2023/05/28 04:15:44;;;;;;;8.50;4.37;;;11.40;99.90;;;;;;5043770;28;20450;-71
2023/05/28 04:18:29;;;;;;;7.03;4.10;;;11.40;99.90;;;;;;5048107;28;20562;-74
2023/05/28 04:21:15;;;;;;;8.37;3.97;;;11.40;99.90;;;;;;5051818;28;20424;-70
2023/05/28 04:24:01;;;;;;;13.60;4.90;;;11.40;99.90;;;;;;5051674;28;20416;-70
2023/05/28 04:26:47;;;;;;;7.53;4.27;;;11.40;99.90;;;;;;5038643;28;20797;-70
2023/05/28 04:29:33;;;;;;;8.30;4.20;;;11.30;99.90;;;;;;5051670;28;20465;-71
2023/05/28 04:32:19;;;;;;;7.13;4.17;;;11.30;99.90;;;;;;5047434;28;20416;-70
2023/05/28 04:35:05;;;;;;;13.40;4.83;;;11.50;99.90;;;;;;5039911;28;20427;-70
2023/05/28 04:37:51;;;;;;;11.30;4.70;;;11.60;99.90;;;;;;5044271;28;20441;-70
2023/05/28 04:40:37;;;;;;;6.87;4.53;;;11.80;99.90;;;;;;5050194;28;20818;-70
2023/05/28 04:43:24;;;;;;;11.93;4.63;;;11.80;99.90;;;;;;5054202;28;20480;-71
2023/05/28 04:46:09;;;;;;;10.70;5.37;;;11.80;99.90;;;;;;5041588;28;20526;-71
2023/05/28 04:48:55;;;;;;;7.70;4.87;;;11.80;99.90;;;;;;5046843;28;20488;-71
2023/05/28 04:51:40;;;;;;;7.33;4.47;;;11.80;99.90;;;;;;5049204;28;20928;-73
2023/05/28 04:54:26;;;;;;;7.33;4.03;;;12.00;99.90;;;;;;5045933;28;20435;-71
2023/05/28 04:57:11;;;;;;;9.87;5.00;;;12.10;99.90;;;;;;5044226;28;20501;-72
2023/05/28 04:59:58;;;;;;;15.27;5.20;;;12.10;99.90;;;;;;5043362;28;20932;-70
2023/05/28 05:02:44;;;;;;;11.07;4.90;;;12.20;99.90;;;;;;5049814;28;20510;-71
2023/05/28 05:05:30;;;;;;;10.23;5.20;;;12.30;99.90;;;;;;5046960;28;20443;-72
2023/05/28 05:08:15;;;;;;;8.37;5.37;;;12.50;99.90;;;;;;5054383;28;20444;-72
2023/05/28 05:11:01;;;;;;;12.10;5.40;;;12.60;99.90;;;;;;5044753;28;20485;-72
2023/05/28 05:13:47;;;;;;;14.53;5.03;;;12.70;99.90;;;;;;5048680;28;20464;-71
2023/05/28 05:16:34;;;;;;;6.70;4.57;;;12.70;99.90;;;;;;5044058;28;20450;-72
2023/05/28 05:19:19;;;;;;;8.00;4.60;;;12.90;99.90;;;;;;5041273;28;20472;-69
2023/05/28 05:22:05;;;;;;;7.90;4.63;;;13.00;99.90;;;;;;5047899;28;20458;-72
2023/05/28 05:24:50;;;;;;;15.53;5.10;;;13.10;99.90;;;;;;5044188;28;20604;-72
2023/05/28 05:27:36;;;;;;;12.63;4.83;;;13.30;99.90;;;;;;5050411;28;20435;-72
2023/05/28 05:30:22;;;;;;;13.93;4.73;;;13.50;99.90;;;;;;5052890;28;20456;-72
2023/05/28 05:33:08;;;;;;;9.70;3.73;;;13.70;99.90;;;;;;5044615;28;20445;-72
2023/05/28 05:35:54;;;;;;;8.67;4.33;;;13.80;99.90;;;;;;5044366;28;20450;-72
2023/05/28 05:38:39;;;;;;;14.70;5.70;;;14.00;99.90;;;;;;5048071;28;20598;-72
2023/05/28 05:41:25;;;;;;;8.37;4.20;;;14.00;99.90;;;;;;5054336;28;20441;-72
2023/05/28 05:44:10;;;;;;;10.07;4.50;;;14.00;99.90;;;;;;5047183;28;20476;-72
2023/05/28 05:46:56;;;;;;;5.70;4.40;;;14.00;99.90;;;;;;5048539;28;20447;-72
2023/05/28 05:49:42;;;;;;;7.97;4.10;;;14.10;99.90;;;;;;5051457;28;20846;-72
2023/05/28 05:52:28;;;;;;;9.37;4.57;;;14.30;99.90;;;;;;5056475;28;20514;-72
2023/05/28 05:55:14;;;;;;;7.43;4.20;;;14.50;99.90;;;;;;5045264;28;20445;-72
2023/05/28 05:58:01;;;;;;;11.63;5.03;;;14.60;99.90;;;;;;5048113;28;20450;-70
2023/05/28 06:00:48;;;;;;;9.70;4.60;;;14.80;99.90;;;;;;5047602;28;20448;-71
2023/05/28 06:03:33;;;;;;;7.30;4.10;;;15.00;99.90;;;;;;5046642;28;20482;-70
2023/05/28 06:06:20;;;;;;;17.23;4.93;;;15.10;99.90;;;;;;5049090;28;20445;-72
2023/05/28 06:09:06;;;;;;;9.00;3.90;;;15.20;99.90;;;;;;5047695;28;20462;-72
2023/05/28 06:11:51;;;;;;;7.30;4.57;;;15.40;98.30;;;;;;5053413;28;20497;-72
2023/05/28 06:14:36;;;;;;;9.10;4.50;;;15.50;96.80;;;;;;5052926;28;20437;-72
2023/05/28 06:17:22;;;;;;;8.57;4.27;;;15.70;98.60;;;;;;5049866;28;20469;-72
2023/05/28 06:20:08;;;;;;;7.93;4.27;;;15.80;95.50;;;;;;5050755;28;20556;-72
2023/05/28 06:22:55;;;;;;;10.80;5.27;;;16.00;95.60;;;;;;5046743;28;20523;-71
2023/05/28 06:25:41;;;;;;;8.33;4.10;;;16.20;97.50;;;;;;5048297;28;20442;-72
2023/05/28 06:28:27;;;;;;;8.13;4.50;;;16.30;96.20;;;;;;5043922;28;20443;-72
2023/05/28 06:31:12;;;;;;;9.17;4.50;;;16.40;95.20;;;;;;5045014;28;20967;-71
2023/05/28 06:33:58;;;;;;;7.60;3.83;;;16.50;92.60;;;;;;5043978;28;20547;-72
2023/05/28 06:36:43;;;;;;;11.83;4.20;;;16.70;93.90;;;;;;5054762;28;20508;-73
2023/05/28 06:39:30;;;;;;;10.10;4.60;;;16.90;93.00;;;;;;5043941;28;20470;-71
2023/05/28 06:42:15;;;;;;;7.60;4.13;;;17.10;91.30;;;;;;5048689;28;20451;-70
2023/05/28 06:45:01;;;;;;;8.07;3.87;;;17.20;88.00;;;;;;5045194;28;20447;-72
2023/05/28 06:47:47;;;;;;;10.70;4.07;;;17.30;84.70;;;;;;5051133;28;20436;-70
2023/05/28 06:50:33;;;;;;;11.70;4.77;;;17.40;75.90;;;;;;5048720;28;20471;-72
2023/05/28 06:53:19;;;;;;;9.87;4.20;;;17.60;80.00;;;;;;5039808;28;20411;-72
2023/05/28 06:56:06;;;;;;;10.90;4.13;;;17.60;78.40;;;;;;5048972;28;20946;-72
2023/05/28 06:58:52;;;;;;;11.83;4.80;;;17.70;78.20;;;;;;5054443;28;20437;-73
2023/05/28 07:01:37;;;;;;;11.37;4.60;;;17.80;66.90;;;;;;5049192;28;20987;-71
2023/05/28 07:04:23;;;;;;;12.40;4.70;;;17.90;58.50;;;;;;5049560;28;20821;-70
2023/05/28 07:07:08;;;;;;;8.50;4.33;;;18.00;62.10;;;;;;5049861;28;20838;-71
2023/05/28 07:09:54;;;;;;;9.07;4.77;;;18.10;65.10;;;;;;5050838;28;20474;-71
2023/05/28 07:12:41;;;;;;;9.57;4.20;;;18.20;63.50;;;;;;5045162;28;20447;-72
2023/05/28 07:15:27;;;;;;;15.40;4.83;;;18.40;62.60;;;;;;5051119;28;20444;-72
2023/05/28 07:18:11;;;;;;;12.53;4.53;;;18.50;64.20;;;;;;5045030;28;20448;-72
2023/05/28 07:20:57;;;;;;;10.00;5.73;;;18.50;63.70;;;;;;5044318;28;20950;-72
2023/05/28 07:23:42;;;;;;;8.60;4.80;;;18.70;60.40;;;;;;5048186;28;20492;-72
2023/05/28 07:26:28;;;;;;;12.23;5.53;;;18.80;60.80;;;;;;5050469;28;20410;-73
2023/05/28 07:29:18;;;;;;;11.10;5.07;;;18.90;53.90;;;;;;5049446;28;20483;-72
2023/05/28 07:32:03;;;;;;;12.30;3.70;;;19.00;52.20;;;;;;5047970;28;20444;-71
2023/05/28 07:34:48;;;;;;;12.07;5.23;;;19.10;47.10;;;;;;5045253;28;20436;-73
2023/05/28 07:37:34;;;;;;;11.20;5.13;;;19.20;47.50;;;;;;5048391;28;20444;-73
2023/05/28 07:40:19;;;;;;;7.90;4.30;;;19.20;46.80;;;;;;5046581;28;20479;-70
2023/05/28 07:43:05;;;;;;;10.10;4.50;;;19.20;47.20;;;;;;5036675;28;20481;-72
2023/05/28 07:45:51;;;;;;;8.00;4.77;;;19.40;46.40;;;;;;5044370;28;20455;-72
2023/05/28 07:48:37;;;;;;;8.70;4.13;;;19.40;44.60;;;;;;5043861;28;20523;-73
2023/05/28 07:51:22;;;;;;;8.07;4.90;;;19.50;42.50;;;;;;5047132;28;20443;-72
2023/05/28 07:54:07;;;;;;;9.90;4.87;;;19.60;46.80;;;;;;5041041;28;20436;-72
2023/05/28 07:56:53;;;;;;;12.90;4.60;;;19.70;46.00;;;;;;5039740;28;20984;-73
2023/05/28 07:59:39;;;;;;;12.17;4.43;;;19.70;48.70;;;;;;5050196;28;20538;-72
2023/05/28 08:02:26;;;;;;;11.77;4.80;;;19.80;39.30;;;;;;5046756;28;20579;-71
2023/05/28 08:05:11;;;;;;;7.00;3.77;;;19.90;38.90;;;;;;5044252;28;20567;-71
2023/05/28 08:07:57;;;;;;;8.70;4.93;;;20.00;43.50;;;;;;5038702;28;20419;-72
2023/05/28 08:10:42;;;;;;;9.03;4.33;;;20.10;43.60;;;;;;5040199;28;20492;-71
2023/05/28 08:13:28;;;;;;;9.80;4.80;;;20.20;41.10;;;;;;5038681;28;20445;-72
2023/05/28 08:16:14;;;;;;;12.00;4.70;;;20.30;40.40;;;;;;5040990;28;20445;-71
2023/05/28 08:19:01;;;;;;;9.43;4.73;;;20.30;39.90;;;;;;5048970;28;20447;-71
2023/05/28 08:21:46;;;;;;;7.13;5.07;;;20.30;38.60;;;;;;5051096;28;21079;-72
2023/05/28 08:24:32;;;;;;;7.17;4.47;;;20.30;36.00;;;;;;5047399;28;20477;-72
2023/05/28 08:27:17;;;;;;;8.60;4.93;;;20.40;40.00;;;;;;5048839;28;20515;-71
2023/05/28 08:30:03;;;;;;;10.03;4.23;;;20.50;34.70;;;;;;5045474;28;20555;-71
2023/05/28 08:32:49;;;;;;;9.17;5.20;;;20.60;34.90;;;;;;5048707;28;20961;-72
2023/05/28 08:35:35;;;;;;;10.67;5.17;;;20.70;39.00;;;;;;5042028;28;20560;-73
2023/05/28 08:38:21;;;;;;;14.07;4.53;;;20.70;38.90;;;;;;5051790;28;20424;-72
2023/05/28 08:41:08;;;;;;;8.60;4.60;;;20.80;39.20;;;;;;5045277;28;20419;-73
2023/05/28 08:43:54;;;;;;;10.53;4.63;;;20.90;38.10;;;;;;5045508;28;21962;-73
2023/05/28 08:46:40;;;;;;;12.83;4.67;;;20.90;38.70;;;;;;5047717;28;20424;-73
2023/05/28 08:49:31;;;;;;;7.13;4.37;;;21.00;36.40;;;;;;5046325;28;20459;-72
2023/05/28 08:52:19;;;;;;;8.97;4.60;;;21.10;37.00;;;;;;5047074;28;20568;-72
2023/05/28 08:55:06;;;;;;;13.50;5.37;;;21.30;33.00;;;;;;5040774;28;20448;-72
2023/05/28 08:57:53;;;;;;;15.93;5.27;;;21.30;35.00;;;;;;5042194;28;20450;-72
2023/05/28 09:00:38;;;;;;;9.13;4.50;;;21.40;36.50;;;;;;5045030;28;20444;-73
2023/05/28 09:03:24;;;;;;;13.67;4.73;;;21.50;34.10;;;;;;5041006;28;20464;-71
2023/05/28 09:06:10;;;;;;;12.70;4.90;;;21.60;30.50;;;;;;5040733;28;20578;-72
2023/05/28 09:08:57;;;;;;;8.87;4.40;;;21.60;31.10;;;;;;5041270;28;20440;-72
2023/05/28 09:11:42;;;;;;;13.27;6.40;;;21.60;32.70;;;;;;5046964;28;20475;-73
2023/05/28 09:14:27;;;;;;;12.60;4.80;;;21.70;32.40;;;;;;5044302;28;20440;-73
2023/05/28 09:17:13;;;;;;;5.80;4.23;;;21.80;31.10;;;;;;5045436;28;20960;-73
2023/05/28 09:19:59;;;;;;;7.53;4.10;;;21.80;32.20;;;;;;5056043;22;20516;-72
2023/05/28 09:22:45;;;;;;;12.40;4.80;;;21.90;30.00;;;;;;5015277;28;20581;-73
2023/05/28 09:25:36;;;;;;;10.37;5.60;;;22.10;32.60;;;;;;5030120;28;20437;-73
2023/05/28 09:28:26;;;;;;;10.87;4.80;;;22.20;28.20;;;;;;5027089;28;20465;-72
2023/05/28 09:31:12;;;;;;;10.70;4.70;;;22.30;27.90;;;;;;5024816;28;20543;-71
2023/05/28 09:33:57;;;;;;;13.03;4.90;;;22.40;26.80;;;;;;5017774;28;20487;-71
2023/05/28 09:36:43;;;;;;;8.87;5.00;;;22.50;27.50;;;;;;5023508;28;20957;-70
2023/05/28 09:39:28;;;;;;;12.83;4.90;;;22.50;26.30;;;;;;5023809;28;20480;-71
2023/05/28 09:42:15;;;;;;;8.03;4.43;;;22.60;25.00;;;;;;5017590;28;20438;-72
2023/05/28 09:45:01;;;;;;;8.17;4.53;;;22.70;26.00;;;;;;5025795;28;20476;-73
2023/05/28 09:47:47;;;;;;;11.40;4.83;;;22.80;23.50;;;;;;5025800;28;20492;-71
2023/05/28 09:50:31;;;;;;;9.77;4.47;;;22.90;26.40;;;;;;5022181;28;20604;-71
2023/05/28 09:53:18;;;;;;;15.33;5.40;;;22.80;26.70;;;;;;5019750;28;20815;-73
2023/05/28 09:56:04;;;;;;;11.50;6.00;;;22.90;24.80;;;;;;5018478;28;20472;-72
2023/05/28 09:58:54;;;;;;;9.00;4.20;;;22.90;25.20;;;;;;5021488;28;20941;-73
2023/05/28 10:01:47;;;;;;;15.10;6.10;;;23.00;23.60;;;;;;5017051;28;20480;-70
2023/05/28 10:04:35;;;;;;;13.10;4.93;;;23.10;23.50;;;;;;5020524;28;20982;-72
2023/05/28 10:07:23;;;;;;;8.80;4.10;;;23.30;22.50;;;;;;5019044;28;20449;-72
2023/05/28 10:10:12;;;;;;;11.20;4.70;;;23.40;21.70;;;;;;5020363;28;20461;-72
2023/05/28 10:12:59;;;;;;;7.37;4.20;;;23.50;20.80;;;;;;5023503;28;20868;-72
2023/05/28 10:15:46;;;;;;;8.67;4.20;;;23.50;22.60;;;;;;5034957;28;20957;-72
2023/05/28 10:18:32;;;;;;;9.53;4.17;;;23.60;20.90;;;;;;5034570;28;20806;-72
2023/05/28 10:21:19;;;;;;;9.80;4.60;;;23.60;21.00;;;;;;5025854;28;20944;-72
2023/05/28 10:24:05;;;;;;;15.57;4.40;;;23.70;21.20;;;;;;5031310;28;20956;-72
2023/05/28 10:26:51;;;;;;;9.80;4.87;;;23.80;20.20;;;;;;5024279;28;20432;-72
2023/05/28 10:29:41;;;;;;;14.57;5.03;;;23.90;19.50;;;;;;5028879;28;20983;-72
2023/05/28 10:32:27;;;;;;;11.20;5.20;;;24.00;20.70;;;;;;5025921;28;20444;-72
2023/05/28 10:35:13;;;;;;;12.00;4.20;;;24.10;21.00;;;;;;5029457;28;20448;-72
2023/05/28 10:38:06;;;;;;;33.97;5.40;;;24.20;20.20;;;;;;5031651;28;20440;-72
2023/05/28 10:40:52;;;;;;;11.70;4.67;;;24.20;20.90;;;;;;5026074;28;20470;-72
2023/05/28 10:43:43;;;;;;;8.87;4.43;;;24.20;20.20;;;;;;5027610;28;20444;-72
2023/05/28 10:46:37;;;;;;;10.10;5.33;;;24.20;19.50;;;;;;5025927;28;20526;-71
2023/05/28 10:49:24;;;;;;;11.87;5.00;;;24.30;20.70;;;;;;5021920;28;20547;-72
2023/05/28 10:52:21;;;;;;;9.07;4.50;;;24.30;21.20;;;;;;5025986;28;20576;-72
2023/05/28 10:55:09;;;;;;;6.47;4.27;;;24.40;20.90;;;;;;5028200;28;20581;-72
2023/05/28 10:58:07;;;;;;;8.30;4.27;;;24.50;18.60;;;;;;5020003;28;20587;-71
2023/05/28 11:00:53;;;;;;;8.20;4.13;;;24.60;18.70;;;;;;5024686;28;20476;-71
2023/05/28 11:03:46;;;;;;;7.60;4.30;;;24.60;17.60;;;;;;5025197;28;20631;-72
2023/05/28 11:06:32;;;;;;;8.00;4.20;;;24.70;16.50;;;;;;5029210;28;20449;-71
2023/05/28 11:09:18;;;;;;;9.00;4.33;;;24.70;16.30;;;;;;5019039;28;20527;-72
2023/05/28 11:12:05;;;;;;;14.23;4.20;;;24.70;16.00;;;;;;5024661;28;20534;-71
2023/05/28 11:14:50;;;;;;;6.67;4.47;;;24.70;15.00;;;;;;5026480;28;20449;-72
2023/05/28 11:17:39;;;;;;;10.00;4.93;;;24.80;15.60;;;;;;5026112;28;20832;-70
2023/05/28 11:20:27;;;;;;;10.57;5.27;;;24.80;15.50;;;;;;5025025;28;21100;-71
2023/05/28 11:23:16;;;;;;;10.97;4.93;;;24.90;15.60;;;;;;5025383;28;20448;-72
2023/05/28 11:26:02;;;;;;;8.37;4.20;;;25.00;14.70;;;;;;5023298;28;20478;-72
2023/05/28 11:28:48;;;;;;;7.97;4.37;;;25.10;15.90;;;;;;5022481;28;20448;-72
2023/05/28 11:31:39;;;;;;;10.37;5.47;;;25.10;19.10;;;;;;5022129;28;20449;-72
2023/05/28 11:34:24;;;;;;;12.70;4.87;;;25.30;17.40;;;;;;5027758;28;21049;-72
2023/05/28 11:37:10;;;;;;;9.80;4.57;;;25.30;17.20;;;;;;5026054;28;20580;-71
2023/05/28 11:39:57;;;;;;;10.80;4.40;;;25.50;16.60;;;;;;5022375;28;20510;-71
2023/05/28 11:42:44;;;;;;;9.80;4.63;;;25.50;16.20;;;;;;5024337;28;20460;-72
2023/05/28 11:45:37;;;;;;;16.93;4.60;;;25.50;16.20;;;;;;5026042;28;20935;-72
2023/05/28 11:48:22;;;;;;;7.67;4.77;;;25.60;14.90;;;;;;5018296;28;20448;-71
2023/05/28 11:51:07;;;;;;;9.07;4.90;;;25.60;13.90;;;;;;5021451;28;20533;-70
2023/05/28 11:53:53;;;;;;;10.33;5.00;;;25.50;14.00;;;;;;5021323;28;20519;-71
2023/05/28 11:56:40;;;;;;;9.13;4.40;;;25.60;14.10;;;;;;5023165;28;20486;-71
2023/05/28 11:59:26;;;;;;;8.33;4.60;;;25.60;14.30;;;;;;5024797;28;20823;-71
2023/05/28 12:02:13;;;;;;;6.37;4.00;;;25.70;16.50;;;;;;5020965;28;20523;-70
2023/05/28 12:05:01;;;;;;;9.20;4.47;;;25.80;15.30;;;;;;5028950;28;20473;-71
2023/05/28 12:07:47;;;;;;;7.37;4.80;;;25.90;13.30;;;;;;5026715;28;20924;-71
2023/05/28 12:10:32;;;;;;;8.70;4.87;;;26.00;13.70;;;;;;5022906;28;20476;-71
2023/05/28 12:13:19;;;;;;;11.40;5.50;;;26.10;13.20;;;;;;5024799;28;20444;-71
2023/05/28 12:16:09;;;;;;;9.07;5.07;;;26.10;13.60;;;;;;5020033;28;20458;-71
2023/05/28 12:19:01;;;;;;;10.60;5.40;;;26.10;14.60;;;;;;5022392;28;20559;-71
2023/05/28 12:21:47;;;;;;;10.70;5.10;;;26.20;13.90;;;;;;5016807;28;20994;-71
2023/05/28 12:24:32;;;;;;;9.90;4.93;;;26.30;15.10;;;;;;5022556;28;21023;-70
2023/05/28 12:27:18;;;;;;;7.90;5.50;;;26.40;11.50;;;;;;5034183;28;20812;-71
2023/05/28 12:30:05;;;;;;;12.43;5.47;;;26.50;11.70;;;;;;5026506;28;20511;-71
2023/05/28 12:32:51;;;;;;;6.63;4.40;;;26.50;12.70;;;;;;5024394;28;20471;-71
2023/05/28 12:35:37;;;;;;;7.50;4.70;;;26.60;11.50;;;;;;5025387;28;21089;-70
2023/05/28 12:38:22;;;;;;;9.20;5.50;;;26.60;11.60;;;;;;5025913;28;20584;-72
2023/05/28 12:41:08;;;;;;;9.80;5.20;;;26.70;11.50;;;;;;5021020;28;20472;-72
2023/05/28 12:43:53;;;;;;;10.60;5.10;;;26.60;12.00;;;;;;5022937;28;20444;-72
2023/05/28 12:46:39;;;;;;;10.77;5.30;;;26.70;10.80;;;;;;5030441;28;20444;-72
2023/05/28 12:49:25;;;;;;;7.57;4.50;;;26.80;10.70;;;;;;5022349;28;20464;-71
2023/05/28 12:52:10;;;;;;;10.30;5.27;;;26.80;12.30;;;;;;5022974;28;20461;-71
2023/05/28 12:54:55;;;;;;;10.23;5.10;;;26.90;11.10;;;;;;5022400;28;20519;-72
2023/05/28 12:57:41;;;;;;;11.93;5.03;;;26.90;11.40;;;;;;5025280;28;20444;-72
2023/05/28 13:00:26;;;;;;;8.60;5.07;;;27.00;11.50;;;;;;5026428;28;20527;-71
2023/05/28 13:03:13;;;;;;;9.00;5.37;;;27.10;9.80;;;;;;5026326;28;20448;-72
2023/05/28 13:05:59;;;;;;;9.73;4.80;;;27.20;9.60;;;;;;5021731;28;20996;-71
2023/05/28 13:08:44;;;;;;;9.40;5.50;;;27.20;10.10;;;;;;5028455;28;20457;-71
2023/05/28 13:11:30;;;;;;;10.30;5.53;;;27.20;10.00;;;;;;5018901;28;20824;-72
2023/05/28 13:14:16;;;;;;;12.30;6.00;;;27.30;10.80;;;;;;5026638;28;20539;-72
2023/05/28 13:17:02;;;;;;;10.73;5.30;;;27.30;9.80;;;;;;5021497;28;20531;-71
2023/05/28 13:19:48;;;;;;;9.17;4.73;;;27.30;8.40;;;;;;5027205;28;20527;-72
2023/05/28 13:22:36;;;;;;;7.90;5.07;;;27.30;10.00;;;;;;5022722;28;20532;-72
2023/05/28 13:25:22;;;;;;;9.00;5.57;;;27.50;10.10;;;;;;5026504;28;21265;-71
2023/05/28 13:28:07;;;;;;;7.73;5.53;;;27.60;10.50;;;;;;5026918;28;20444;-71
2023/05/28 13:30:53;;;;;;;14.57;6.07;;;27.70;9.50;;;;;;5020942;28;20476;-71
2023/05/28 13:33:38;;;;;;;11.10;5.60;;;27.70;8.70;;;;;;5026829;28;20436;-71
2023/05/28 13:36:26;;;;;;;14.00;5.60;;;27.80;8.80;;;;;;5024617;28;20449;-72
2023/05/28 13:39:11;;;;;;;11.27;6.00;;;27.90;10.10;;;;;;5025779;28;20452;-71
2023/05/28 13:41:57;;;;;;;7.77;5.20;;;28.00;8.90;;;;;;5023545;28;20460;-71
2023/05/28 13:44:42;;;;;;;10.10;5.07;;;28.00;8.90;;;;;;5024608;28;20473;-72
2023/05/28 13:47:28;;;;;;;10.33;6.07;;;28.00;8.90;;;;;;5024127;28;20464;-71
2023/05/28 13:50:14;;;;;;;6.97;5.27;;;28.00;10.00;;;;;;5019505;28;20555;-71
2023/05/28 13:53:02;;;;;;;12.13;6.13;;;28.00;8.90;;;;;;5027005;28;20455;-72
2023/05/28 13:55:47;;;;;;;13.70;6.20;;;28.10;9.30;;;;;;5025307;28;20518;-71
2023/05/28 13:58:33;;;;;;;9.60;5.87;;;28.20;8.40;;;;;;5028256;28;20468;-72
2023/05/28 14:01:18;;;;;;;11.63;5.13;;;28.20;9.00;;;;;;5025984;28;20573;-73
2023/05/28 14:04:04;;;;;;;8.77;5.83;;;28.20;8.30;;;;;;5022038;28;20448;-73
2023/05/28 14:06:49;;;;;;;13.23;5.77;;;28.20;9.00;;;;;;5026675;28;20519;-73
2023/05/28 14:09:37;;;;;;;10.60;5.03;;;28.20;9.00;;;;;;5028821;28;20834;-72
2023/05/28 14:12:22;;;;;;;8.57;5.63;;;28.20;10.00;;;;;;5024111;28;20457;-72
2023/05/28 14:15:09;;;;;;;7.63;5.17;;;28.20;9.90;;;;;;5024768;28;21012;-73
2023/05/28 14:17:54;;;;;;;9.40;5.23;;;28.20;9.00;;;;;;5026339;28;20453;-72
2023/05/28 14:20:40;;;;;;;9.73;7.13;;;28.20;9.00;;;;;;5028572;28;20477;-72